
Distance (Route):
Temperature : -20.1°C
Humidity : 90.3%
Pressure : 0hPa| Receiver | Date | Latitude | Longitude | Direction | Speed | Altitude | Climb | Temperature | Humidity | Pressure | Voltage | Killtimer | Uptime | BKT | XDATA |
|---|---|---|---|---|---|---|---|---|---|---|---|---|---|---|---|
| LZ4TU-5 | 2026-09-04 00:53:17 | 44.15359 | 20.91382 | 156° | 80km/h | 6689m | -15.6m/s | -20.1°C | 90.3% | 0hPa | 5.5V | 00:00:00 | 00:00:00 | 00:00:00 | |
| LZ4TU-5 | 2026-09-04 00:49:21 | 44.21989 | 20.88436 | 174° | 172km/h | 10501m | -17.5m/s | -48.1°C | 27.0% | 0hPa | 5.5V | 00:00:00 | 00:00:00 | 00:00:00 | |
| LZ4TU-5 | 2026-09-04 00:49:17 | 44.22160 | 20.88406 | 174° | 170km/h | 10577m | -18.7m/s | -48.6°C | 25.9% | 0hPa | 5.5V | 00:00:00 | 00:00:00 | 00:00:00 | |
| LZ4TU-5 | 2026-09-04 00:42:39 | 44.27501 | 20.83950 | 84° | 13km/h | 20647m | -35.8m/s | -56.8°C | 0.0% | 0hPa | 5.5V | 00:00:00 | 00:00:00 | 00:00:00 | |
| LZ4TU-5 | 2026-09-04 00:42:34 | 44.27494 | 20.83928 | 66° | 15km/h | 20817m | -32.9m/s | -56.1°C | 0.0% | 0hPa | 5.5V | 00:00:00 | 00:00:00 | 00:00:00 | |
| LZ4TU-5 | 2026-09-04 00:40:37 | 44.27626 | 20.83954 | 279° | 5km/h | 25011m | -37.2m/s | -50.1°C | 0.0% | 0hPa | 5.5V | 00:00:00 | 00:00:00 | 00:00:00 | |
| LZ4TU-5 | 2026-09-04 00:40:31 | 44.27634 | 20.83966 | 232° | 15km/h | 25200m | -38.3m/s | -50.1°C | 0.0% | 0hPa | 5.5V | 00:00:00 | 00:00:00 | 00:00:00 | |
| LZ4TU-5 | 2026-09-04 00:38:47 | 44.27546 | 20.83864 | 156° | 9km/h | 29610m | -42.5m/s | -43.7°C | 0.0% | 0hPa | 5.5V | 00:00:00 | 00:00:00 | 00:00:00 | |
| LZ4TU-5 | 2026-09-04 00:38:42 | 44.27552 | 20.83864 | 285° | 9km/h | 29830m | -40.6m/s | -43.1°C | 0.0% | 0hPa | 5.5V | 00:00:00 | 00:00:00 | 00:00:00 | |
| LZ4TU-5 | 2026-09-04 00:36:53 | 44.27642 | 20.83850 | 3° | 13km/h | 29385m | 7.3m/s | -44.2°C | 0.0% | 0hPa | 5.5V | 00:00:00 | 00:00:00 | 00:00:00 | |
| LZ4TU-5 | 2026-09-04 00:36:49 | 44.27632 | 20.83858 | 328° | 9km/h | 29357m | 7.7m/s | -44.2°C | 0.0% | 0hPa | 5.5V | 00:00:00 | 00:00:00 | 00:00:00 | |
| LZ4TU-5 | 2026-09-04 00:35:00 | 44.27822 | 20.83736 | 155° | 15km/h | 28609m | 7.3m/s | -43.8°C | 0.0% | 0hPa | 5.5V | 00:00:00 | 00:00:00 | 00:00:00 | |
| LZ4TU-5 | 2026-09-04 00:34:56 | 44.27831 | 20.83725 | 150° | 11km/h | 28583m | 8.2m/s | -43.8°C | 0.0% | 0hPa | 5.5V | 00:00:00 | 00:00:00 | 00:00:00 | |
| LZ4TU-5 | 2026-09-04 00:33:15 | 44.27892 | 20.83248 | 167° | 16km/h | 27909m | 6.4m/s | -45.1°C | 0.0% | 0hPa | 5.5V | 00:00:00 | 00:00:00 | 00:00:00 | |
| LZ4TU-5 | 2026-09-04 00:33:11 | 44.27894 | 20.83197 | 48° | 47km/h | 27876m | 6.1m/s | -45.0°C | 0.0% | 0hPa | 5.5V | 00:00:00 | 00:00:00 | 00:00:00 | |
| OE3JTB-15 | 2026-09-04 00:31:58 | 44.27760 | 20.82856 | 61° | 11km/h | 27383m | 7.6m/s | -45.3°C | 0% | 0hPa | 5.5V | 00:00:00 | 00:00:00 | 00:00:00 | |
| OE3JTB-15 | 2026-09-04 00:31:27 | 44.27686 | 20.82747 | 28° | 24km/h | 27163m | 8.3m/s | -46.8°C | 0% | 0hPa | 5.5V | 00:00:00 | 00:00:00 | 00:00:00 | |
| LZ4TU-5 | 2026-09-04 00:31:22 | 44.27667 | 20.82732 | 44° | 11km/h | 27138m | 6.2m/s | -47.6°C | 0.0% | 0hPa | 5.5V | 00:00:00 | 00:00:00 | 00:00:00 | |
| OE3JTB-15 | 2026-09-04 00:30:11 | 44.27340 | 20.82586 | 9° | 26km/h | 26659m | 6.0m/s | -47.0°C | 0% | 0hPa | 5.5V | 00:00:00 | 00:00:00 | 00:00:00 | |
| OE3JTB-15 | 2026-09-04 00:29:42 | 44.27163 | 20.82617 | 337° | 15km/h | 26473m | 6.7m/s | -46.8°C | 0% | 0hPa | 5.5V | 00:00:00 | 00:00:00 | 00:00:00 | |
| LZ4TU-5 | 2026-09-04 00:29:38 | 44.27141 | 20.82623 | 341° | 29km/h | 26448m | 5.8m/s | -47.4°C | 0.0% | 0hPa | 5.5V | 00:00:00 | 00:00:00 | 00:00:00 | |
| LZ4TU-5 | 2026-09-04 00:29:34 | 44.27121 | 20.82638 | 300° | 18km/h | 26423m | 6.0m/s | -47.7°C | 0.0% | 0hPa | 5.5V | 00:00:00 | 00:00:00 | 00:00:00 | |
| OE3JTB-15 | 2026-09-04 00:29:12 | 44.27074 | 20.82702 | 255° | 15km/h | 26281m | 7.3m/s | -48.0°C | 0% | 0hPa | 5.5V | 00:00:00 | 00:00:00 | 00:00:00 | |
| OE3JTB-15 | 2026-09-04 00:28:42 | 44.27065 | 20.82833 | 216° | 15km/h | 26065m | 6.8m/s | -48.6°C | 0% | 0hPa | 5.5V | 00:00:00 | 00:00:00 | 00:00:00 | |
| OE3JTB-15 | 2026-09-04 00:28:13 | 44.27086 | 20.82836 | 6° | 16km/h | 25874m | 6.7m/s | -49.5°C | 0% | 0hPa | 5.5V | 00:00:00 | 00:00:00 | 00:00:00 | |
| LZ4TU-5 | 2026-09-04 00:27:43 | 44.26995 | 20.82849 | 302° | 16km/h | 25697m | 7.7m/s | -50.8°C | 0.0% | 0hPa | 5.5V | 00:00:00 | 00:00:00 | 00:00:00 | |
| LZ4TU-5 | 2026-09-04 00:27:38 | 44.26995 | 20.82875 | 314° | 11km/h | 25663m | 6.0m/s | -50.7°C | 0.0% | 0hPa | 5.5V | 00:00:00 | 00:00:00 | 00:00:00 | |
| OE3JTB-15 | 2026-09-04 00:27:15 | 44.26982 | 20.83072 | 268° | 31km/h | 25501m | 6.5m/s | -49.7°C | 0% | 0hPa | 5.5V | 00:00:00 | 00:00:00 | 00:00:00 | |
| OE3JTB-15 | 2026-09-04 00:26:46 | 44.27105 | 20.83306 | 220° | 20km/h | 25303m | 7.4m/s | -49.4°C | 0% | 0hPa | 5.5V | 00:00:00 | 00:00:00 | 00:00:00 | |
| OE3JTB-15 | 2026-09-04 00:26:17 | 44.27202 | 20.83386 | 43° | 11km/h | 25125m | 5.6m/s | -49.1°C | 0% | 0hPa | 5.5V | 00:00:00 | 00:00:00 | 00:00:00 | |
| LZ4TU-5 | 2026-09-04 00:25:51 | 44.27186 | 20.83399 | 66° | 15km/h | 24979m | 4.2m/s | -50.1°C | 0.0% | 0hPa | 5.5V | 00:00:00 | 00:00:00 | 00:00:00 | |
| OE3JTB-15 | 2026-09-04 00:25:48 | 44.27172 | 20.83412 | 335° | 15km/h | 24934m | 6.5m/s | -49.4°C | 0% | 0hPa | 5.5V | 00:00:00 | 00:00:00 | 00:00:00 | |
| OE3JTB-15 | 2026-09-04 00:25:17 | 44.27080 | 20.83407 | 7° | 18km/h | 24756m | 5.6m/s | -49.5°C | 0% | 0hPa | 5.5V | 00:00:00 | 00:00:00 | 00:00:00 | |
| OE3JTB-15 | 2026-09-04 00:24:45 | 44.26960 | 20.83499 | 272° | 9km/h | 24562m | 6.5m/s | -50.2°C | 0% | 0hPa | 5.5V | 00:00:00 | 00:00:00 | 00:00:00 | |
| OE3JTB-15 | 2026-09-04 00:24:14 | 44.26958 | 20.83496 | 213° | 7km/h | 24373m | 5.7m/s | -50.6°C | 0% | 0hPa | 5.5V | 00:00:00 | 00:00:00 | 00:00:00 | |
| LZ4TU-5 | 2026-09-04 00:24:08 | 44.26962 | 20.83501 | 289° | 5km/h | 24354m | 6.1m/s | -51.3°C | 0.0% | 0hPa | 5.6V | 00:00:00 | 00:00:00 | 00:00:00 | |
| LZ4TU-5 | 2026-09-04 00:24:03 | 44.26962 | 20.83506 | 140° | 5km/h | 24325m | 5.3m/s | -51.3°C | 0% | 0hPa | 5.6V | 00:00:00 | 00:00:00 | 00:00:00 | |
| OE3JTB-15 | 2026-09-04 00:23:43 | 44.26957 | 20.83485 | 94° | 15km/h | 24175m | 6.8m/s | -51.1°C | 0% | 0hPa | 5.6V | 00:00:00 | 00:00:00 | 00:00:00 | |
| OE3JTB-15 | 2026-09-04 00:23:13 | 44.26960 | 20.83584 | 207° | 16km/h | 23986m | 7.3m/s | -51.7°C | 0% | 0hPa | 5.6V | 00:00:00 | 00:00:00 | 00:00:00 | |
| LZ4TU-5 | 2026-09-04 00:22:15 | 44.27045 | 20.83653 | 180° | 7km/h | 23630m | 6.8m/s | -54.0°C | 0.0% | 0hPa | 5.6V | 00:00:00 | 00:00:00 | 00:00:00 | |
| LZ4TU-5 | 2026-09-04 00:22:11 | 44.27064 | 20.83657 | 202° | 24km/h | 23605m | 5.0m/s | -54.1°C | 0.0% | 0hPa | 5.6V | 00:00:00 | 00:00:00 | 00:00:00 | |
| OE3JTB-15 | 2026-09-04 00:22:06 | 44.27076 | 20.83645 | 83° | 13km/h | 23553m | 6.1m/s | -53.7°C | 0% | 0hPa | 5.6V | 00:00:00 | 00:00:00 | 00:00:00 | |
| OE3JTB-15 | 2026-09-04 00:21:37 | 44.27095 | 20.83715 | 265° | 22km/h | 23369m | 6.3m/s | -54.1°C | 0% | 0hPa | 5.6V | 00:00:00 | 00:00:00 | 00:00:00 | |
| OE3JTB-15 | 2026-09-04 00:21:08 | 44.27090 | 20.83912 | 265° | 26km/h | 23190m | 5.1m/s | -54.4°C | 0% | 0hPa | 5.6V | 00:00:00 | 00:00:00 | 00:00:00 | |
| OE3JTB-15 | 2026-09-04 00:20:39 | 44.27161 | 20.84143 | 230° | 9km/h | 23019m | 5.0m/s | -54.1°C | 0% | 0hPa | 5.6V | 00:00:00 | 00:00:00 | 00:00:00 | |
| LZ4TU-5 | 2026-09-04 00:20:28 | 44.27170 | 20.84138 | 214° | 11km/h | 22968m | 5.0m/s | -54.9°C | 0.0% | 0hPa | 5.6V | 00:00:00 | 00:00:00 | 00:00:00 | |
| LZ4TU-5 | 2026-09-04 00:20:23 | 44.27184 | 20.84161 | 182° | 11km/h | 22937m | 6.5m/s | -54.9°C | 0.0% | 0hPa | 5.6V | 00:00:00 | 00:00:00 | 00:00:00 | |
| OE3JTB-15 | 2026-09-04 00:20:10 | 44.27196 | 20.84143 | 20° | 11km/h | 22838m | 7.7m/s | -53.9°C | 0% | 0hPa | 5.6V | 00:00:00 | 00:00:00 | 00:00:00 | |
| OE3JTB-15 | 2026-09-04 00:19:40 | 44.27172 | 20.84153 | 103° | 15km/h | 22650m | 6.7m/s | -53.7°C | 0% | 0hPa | 5.6V | 00:00:00 | 00:00:00 | 00:00:00 | |
| OE3JTB-15 | 2026-09-04 00:19:11 | 44.27186 | 20.84201 | 346° | 20km/h | 22481m | 4.9m/s | -54.0°C | 0% | 0hPa | 5.6V | 00:00:00 | 00:00:00 | 00:00:00 | |
| OE3JTB-15 | 2026-09-04 00:18:39 | 44.27290 | 20.84318 | 196° | 31km/h | 22282m | 8.0m/s | -54.4°C | 0% | 0hPa | 5.6V | 00:00:00 | 00:00:00 | 00:00:00 | |
| LZ4TU-5 | 2026-09-04 00:18:33 | 44.27311 | 20.84328 | 208° | 24km/h | 22263m | 6.0m/s | -55.2°C | 0.0% | 0hPa | 5.6V | 00:00:00 | 00:00:00 | 00:00:00 | |
| LZ4TU-5 | 2026-09-04 00:18:28 | 44.27345 | 20.84346 | 197° | 29km/h | 22231m | 8.1m/s | -55.2°C | 0.0% | 0hPa | 5.6V | 00:00:00 | 00:00:00 | 00:00:00 | |
| OE3JTB-15 | 2026-09-04 00:18:10 | 44.27512 | 20.84351 | 167° | 33km/h | 22098m | 4.6m/s | -54.5°C | 0% | 0hPa | 5.6V | 00:00:00 | 00:00:00 | 00:00:00 | |
| OE3JTB-15 | 2026-09-04 00:17:40 | 44.27707 | 20.84231 | 137° | 18km/h | 21912m | 5.8m/s | -54.2°C | 0% | 0hPa | 5.6V | 00:00:00 | 00:00:00 | 00:00:00 | |
| OE3JTB-15 | 2026-09-04 00:17:09 | 44.27776 | 20.84056 | 122° | 13km/h | 21730m | 5.5m/s | -54.9°C | 0% | 0hPa | 5.6V | 00:00:00 | 00:00:00 | 00:00:00 | |
| LZ4TU-5 | 2026-09-04 00:16:44 | 44.27768 | 20.83964 | 125° | 9km/h | 21593m | 6.3m/s | -56.3°C | 0.0% | 0hPa | 5.6V | 00:00:00 | 00:00:00 | 00:00:00 | |
| LZ4TU-5 | 2026-09-04 00:16:38 | 44.27777 | 20.83957 | 46° | 9km/h | 21563m | 5.8m/s | -56.5°C | 0.0% | 0hPa | 5.6V | 00:00:00 | 00:00:00 | 00:00:00 | |
| OE3JTB-15 | 2026-09-04 00:16:09 | 44.27800 | 20.83855 | 65° | 16km/h | 21366m | 6.4m/s | -55.6°C | 0% | 0hPa | 5.6V | 00:00:00 | 00:00:00 | 00:00:00 | |
| OE3JTB-15 | 2026-09-04 00:15:38 | 44.27882 | 20.83765 | 108° | 22km/h | 21187m | 7.1m/s | -55.2°C | 0% | 0hPa | 5.6V | 00:00:00 | 00:00:00 | 00:00:00 | |
| OE3JTB-15 | 2026-09-04 00:15:08 | 44.27922 | 20.83571 | 105° | 15km/h | 21012m | 5.5m/s | -55.5°C | 0% | 0hPa | 5.6V | 00:00:00 | 00:00:00 | 00:00:00 | |
| LZ4TU-5 | 2026-09-04 00:14:53 | 44.27906 | 20.83527 | 35° | 11km/h | 20942m | 6.6m/s | -56.6°C | 0.0% | 0hPa | 5.6V | 00:00:00 | 00:00:00 | 00:00:00 | |
| LZ4TU-5 | 2026-09-04 00:14:48 | 44.27889 | 20.83508 | 55° | 18km/h | 20911m | 7.3m/s | -56.8°C | 0.0% | 0hPa | 5.6V | 00:00:00 | 00:00:00 | 00:00:00 | |
| OE3JTB-15 | 2026-09-04 00:14:36 | 44.27871 | 20.83459 | 70° | 11km/h | 20831m | 6.7m/s | -55.8°C | 0% | 0hPa | 5.6V | 00:00:00 | 00:00:00 | 00:00:00 | |
| OE3JTB-15 | 2026-09-04 00:14:05 | 44.27842 | 20.83375 | 26° | 15km/h | 20654m | 5.8m/s | -56.4°C | 0% | 0hPa | 5.6V | 00:00:00 | 00:00:00 | 00:00:00 | |
| OE3JTB-15 | 2026-09-04 00:13:32 | 44.27846 | 20.83206 | 97° | 13km/h | 20459m | 6.4m/s | -56.2°C | 0% | 0hPa | 5.6V | 00:00:00 | 00:00:00 | 00:00:00 | |
| LZ4TU-5 | 2026-09-04 00:13:00 | 44.27827 | 20.83104 | 233° | 4km/h | 20266m | 5.9m/s | -55.9°C | 0.0% | 0hPa | 5.6V | 00:00:00 | 00:00:00 | 00:00:00 | |
| OE3JTB-15 | 2026-09-04 00:12:27 | 44.27755 | 20.83058 | 206° | 9km/h | 20058m | 6.1m/s | -54.8°C | 0% | 0hPa | 5.6V | 00:00:00 | 00:00:00 | 00:00:00 | |
| LZ4TU-5 | 2026-09-04 00:11:12 | 44.28019 | 20.82993 | 105° | 29km/h | 19614m | 4.6m/s | -55.5°C | 0.0% | 0hPa | 0V | 00:00:00 | 00:00:00 | 00:00:00 | |
| LZ4TU-5 | 2026-09-04 00:11:07 | 44.28038 | 20.82947 | 134° | 35km/h | 19582m | 5.0m/s | -55.4°C | 0.0% | 0hPa | 0V | 00:00:00 | 00:00:00 | 00:00:00 | |
| LZ4TU-5 | 2026-09-04 00:09:18 | 44.28138 | 20.82227 | 127° | 18km/h | 18987m | 5.4m/s | -54.6°C | 0.0% | 0hPa | 0V | 00:00:00 | 00:00:00 | 00:00:00 | |
| LZ4TU-5 | 2026-09-04 00:09:13 | 44.28151 | 20.82203 | 146° | 9km/h | 18963m | 4.6m/s | -54.7°C | 0.0% | 0hPa | 0V | 00:00:00 | 00:00:00 | 00:00:00 | |
| LZ4TU-5 | 2026-09-04 00:09:08 | 44.28168 | 20.82192 | 138° | 20km/h | 18934m | 5.6m/s | -54.6°C | 0.0% | 0hPa | 0V | 00:00:00 | 00:00:00 | 00:00:00 | |
| LZ4TU-5 | 2026-09-04 00:07:22 | 44.28526 | 20.80972 | 83° | 40km/h | 18359m | 4.9m/s | -56.1°C | 0.2% | 0hPa | 0V | 00:00:00 | 00:00:00 | 00:00:00 | |
| LZ4TU-5 | 2026-09-04 00:07:17 | 44.28506 | 20.80908 | 67° | 26km/h | 18331m | 4.8m/s | -56.0°C | 0.2% | 0hPa | 0V | 00:00:00 | 00:00:00 | 00:00:00 | |
| LZ4TU-5 | 2026-09-04 00:05:31 | 44.28619 | 20.80020 | 109° | 46km/h | 17734m | 6.1m/s | -58.1°C | 0.4% | 0hPa | 0V | 00:00:00 | 00:00:00 | 00:00:00 | |
| LZ4TU-5 | 2026-09-04 00:05:26 | 44.28636 | 20.79976 | 140° | 27km/h | 17705m | 6.4m/s | -57.9°C | 0.4% | 0hPa | 0V | 00:00:00 | 00:00:00 | 00:00:00 | |
| LZ4TU-5 | 2026-09-04 00:03:41 | 44.29168 | 20.78898 | 113° | 22km/h | 17144m | 4.8m/s | -58.0°C | 0.8% | 0hPa | 0V | 00:00:00 | 00:00:00 | 00:00:00 | |
| LZ4TU-5 | 2026-09-04 00:03:36 | 44.29183 | 20.78873 | 136° | 29km/h | 17123m | 5.8m/s | -57.9°C | 0.7% | 0hPa | 0V | 00:00:00 | 00:00:00 | 00:00:00 | |
| LZ4TU-5 | 2026-09-04 00:02:13 | 44.29715 | 20.77853 | 111° | 49km/h | 16535m | 5.3m/s | -57.3°C | 1.0% | 0hPa | 0V | 00:00:00 | 00:00:00 | 00:00:00 | |
| LZ4TU-5 | 2026-09-04 00:02:07 | 44.29731 | 20.77776 | 97° | 47km/h | 16506m | 4.7m/s | -57.1°C | 1.0% | 0hPa | 0V | 00:00:00 | 00:00:00 | 00:00:00 | |
| LZ4TU-5 | 2026-09-04 00:00:09 | 44.30094 | 20.76390 | 128° | 37km/h | 15968m | 4.7m/s | -57.1°C | 1.2% | 0hPa | 0V | 00:00:00 | 00:00:00 | 00:00:00 | |
| LZ4TU-5 | 2026-09-03 23:58:28 | 44.30531 | 20.75421 | 152° | 33km/h | 15431m | 6.1m/s | -54.9°C | 2.0% | 0hPa | 0V | 00:00:00 | 00:00:00 | 00:00:00 | |
| LZ4TU-5 | 2026-09-03 23:58:24 | 44.30566 | 20.75389 | 137° | 47km/h | 15407m | 5.9m/s | -54.7°C | 2.1% | 0hPa | 0V | 00:00:00 | 00:00:00 | 00:00:00 | |
| LZ4TU-5 | 2026-09-03 23:56:41 | 44.31294 | 20.73850 | 118° | 46km/h | 14840m | 4.8m/s | -53.2°C | 2.5% | 0hPa | 0V | 00:00:00 | 00:00:00 | 00:00:00 | |
| LZ4TU-5 | 2026-09-03 23:56:36 | 44.31327 | 20.73771 | 127° | 58km/h | 14814m | 5.3m/s | -53.2°C | 2.5% | 0hPa | 0V | 00:00:00 | 00:00:00 | 00:00:00 | |
| LZ4TU-5 | 2026-09-03 23:54:49 | 44.32201 | 20.71736 | 128° | 68km/h | 14304m | 4.8m/s | -53.5°C | 2.7% | 0hPa | 0V | 00:00:00 | 00:00:00 | 00:00:00 | |
| LZ4TU-5 | 2026-09-03 23:54:44 | 44.32251 | 20.71643 | 125° | 68km/h | 14278m | 5.0m/s | -53.6°C | 2.7% | 0hPa | 0V | 00:00:00 | 00:00:00 | 00:00:00 | |
| LZ4TU-5 | 2026-09-03 23:53:01 | 44.33318 | 20.69636 | 121° | 80km/h | 13747m | 5.6m/s | -54.0°C | 3.5% | 0hPa | 0V | 00:00:00 | 00:00:00 | 00:00:00 | |
| LZ4TU-5 | 2026-09-03 23:52:56 | 44.33371 | 20.69546 | 143° | 58km/h | 13716m | 8.3m/s | -53.9°C | 3.6% | 0hPa | 0V | 00:00:00 | 00:00:00 | 00:00:00 | |
| LZ4TU-5 | 2026-09-03 23:51:09 | 44.35332 | 20.67606 | 150° | 108km/h | 13032m | 6.0m/s | -53.3°C | 6.0% | 0hPa | 0V | 00:00:00 | 00:00:00 | 00:00:00 | |
| LZ4TU-5 | 2026-09-03 23:51:04 | 44.35440 | 20.67507 | 150° | 104km/h | 13007m | 5.5m/s | -53.6°C | 6.2% | 0hPa | 0V | 00:00:00 | 00:00:00 | 00:00:00 | |
| LZ4TU-5 | 2026-09-03 23:49:15 | 44.37535 | 20.65557 | 164° | 82km/h | 12432m | 6.1m/s | -53.9°C | 10.8% | 0hPa | 0V | 00:00:00 | 00:00:00 | 00:00:00 | |
| LZ4TU-5 | 2026-09-03 23:49:11 | 44.37606 | 20.65526 | 151° | 77km/h | 12413m | 4.0m/s | -53.8°C | 11.1% | 0hPa | 0V | 00:00:00 | 00:00:00 | 00:00:00 | |
| LZ4TU-5 | 2026-09-03 23:47:29 | 44.40214 | 20.63641 | 157° | 126km/h | 11790m | 5.2m/s | -53.5°C | 22.4% | 0hPa | 0V | 00:00:00 | 00:00:00 | 00:00:00 | |
| LZ4TU-5 | 2026-09-03 23:47:24 | 44.40353 | 20.63561 | 154° | 120km/h | 11761m | 4.7m/s | -53.4°C | 23.1% | 0hPa | 0V | 00:00:00 | 00:00:00 | 00:00:00 | |
| LZ4TU-5 | 2026-09-03 23:45:43 | 44.43635 | 20.62177 | 166° | 159km/h | 11187m | 5.0m/s | -53.3°C | 36.0% | 0hPa | 0V | 00:00:00 | 00:00:00 | 00:00:00 | |
| LZ4TU-5 | 2026-09-03 23:45:39 | 44.43786 | 20.62122 | 169° | 150km/h | 11168m | 6.0m/s | -53.1°C | 36.2% | 0hPa | 0V | 00:00:00 | 00:00:00 | 00:00:00 | |
| LZ4TU-5 | 2026-09-03 23:43:51 | 44.48266 | 20.61050 | 169° | 166km/h | 10582m | 5.9m/s | -49.6°C | 36.5% | 0hPa | 0V | 00:00:00 | 00:00:00 | 00:00:00 | |
| LZ4TU-5 | 2026-09-03 23:43:47 | 44.48429 | 20.61000 | 170° | 173km/h | 10563m | 3.8m/s | -49.5°C | 36.4% | 0hPa | 0V | 00:00:00 | 00:00:00 | 00:00:00 | |
| LZ4TU-5 | 2026-09-03 23:42:11 | 44.52367 | 20.59784 | 174° | 139km/h | 10052m | 2.7m/s | -45.7°C | 39.7% | 0hPa | 0V | 00:00:00 | 00:00:00 | 00:00:00 | |
| LZ4TU-5 | 2026-09-03 23:42:06 | 44.52563 | 20.59707 | 166° | 181km/h | 10012m | 6.3m/s | -45.6°C | 39.7% | 0hPa | 0V | 00:00:00 | 00:00:00 | 00:00:00 | |
| LZ4TU-5 | 2026-09-03 23:40:42 | 44.55658 | 20.58615 | 161° | 142km/h | 9542m | 5.1m/s | -42.2°C | 40.9% | 0hPa | 0V | 00:00:00 | 00:00:00 | 00:00:00 | |
| LZ4TU-5 | 2026-09-03 23:40:38 | 44.55805 | 20.58534 | 163° | 161km/h | 9521m | 6.1m/s | -42.1°C | 41.9% | 0hPa | 0V | 00:00:00 | 00:00:00 | 00:00:00 | |
| LZ4TU-5 | 2026-09-03 23:39:09 | 44.58695 | 20.56947 | 158° | 142km/h | 8953m | 4.7m/s | -38.1°C | 54.9% | 0hPa | 0V | 00:00:00 | 00:00:00 | 00:00:00 | |
| LZ4TU-5 | 2026-09-03 23:39:05 | 44.58819 | 20.56898 | 162° | 113km/h | 8930m | 5.6m/s | -38.2°C | 56.6% | 0hPa | 0V | 00:00:00 | 00:00:00 | 00:00:00 | |
| LZ4TU-5 | 2026-09-03 23:37:40 | 44.61127 | 20.55527 | 151° | 122km/h | 8421m | 6.5m/s | -34.0°C | 59.0% | 0hPa | 0V | 00:00:00 | 00:00:00 | 00:00:00 | |
| LZ4TU-5 | 2026-09-03 23:37:35 | 44.61239 | 20.55448 | 166° | 104km/h | 8390m | 5.2m/s | -33.8°C | 59.8% | 0hPa | 0V | 00:00:00 | 00:00:00 | 00:00:00 | |
| LZ4TU-5 | 2026-09-03 23:36:12 | 44.62899 | 20.54275 | 144° | 91km/h | 7840m | 5.7m/s | -29.7°C | 65.9% | 0hPa | 0V | 00:00:00 | 00:00:00 | 00:00:00 | |
| LZ4TU-5 | 2026-09-03 23:34:54 | 44.64197 | 20.52969 | 132° | 62km/h | 7369m | 5.5m/s | -25.6°C | 59.7% | 0hPa | 0V | 00:00:00 | 00:00:00 | 00:00:00 | |
| LZ4TU-5 | 2026-09-03 23:34:49 | 44.64279 | 20.52905 | 160° | 84km/h | 7340m | 4.7m/s | -25.3°C | 59.1% | 0hPa | 0V | 00:00:00 | 00:00:00 | 00:00:00 | |
| LZ4TU-5 | 2026-09-03 23:33:33 | 44.65586 | 20.51677 | 148° | 106km/h | 6922m | 5.0m/s | -21.6°C | 54.1% | 0hPa | 0V | 00:00:00 | 00:00:00 | 00:00:00 | |
| LZ4TU-5 | 2026-09-03 23:33:28 | 44.65694 | 20.51614 | 160° | 68km/h | 6895m | 7.2m/s | -21.4°C | 55.3% | 0hPa | 0V | 00:00:00 | 00:00:00 | 00:00:00 | |
| LZ4TU-5 | 2026-09-03 23:32:03 | 44.67094 | 20.50152 | 145° | 53km/h | 6466m | 4.3m/s | -18.9°C | 72.0% | 0hPa | 0V | 00:00:00 | 00:00:00 | 00:00:00 | |
| LZ4TU-5 | 2026-09-03 23:30:48 | 44.68099 | 20.48936 | 128° | 62km/h | 6049m | 5.9m/s | -16.1°C | 79.4% | 0hPa | 0V | 00:00:00 | 00:00:00 | 00:00:00 | |
| LZ4TU-5 | 2026-09-03 23:30:44 | 44.68157 | 20.48872 | 156° | 68km/h | 6026m | 5.6m/s | -16.0°C | 80.8% | 0hPa | 0V | 00:00:00 | 00:00:00 | 00:00:00 | |
| LZ4TU-5 | 2026-09-03 23:29:26 | 44.69108 | 20.47656 | 120° | 60km/h | 5557m | 6.3m/s | -13.3°C | 32.7% | 0hPa | 0V | 00:00:00 | 00:00:00 | 00:00:00 |